createdAt,value
2023-02-18T00:02:00.861Z,2.50
2023-02-18T00:04:31.154Z,2.72
2023-02-18T00:07:01.444Z,2.22
2023-02-18T00:09:31.399Z,2.42
2023-02-18T00:12:01.381Z,2.30
2023-02-18T00:14:31.660Z,2.45
2023-02-18T00:17:04.570Z,2.30
2023-02-18T00:19:34.780Z,2.65
2023-02-18T00:22:05.054Z,2.75
2023-02-18T00:24:35.367Z,2.30
2023-02-18T00:27:05.647Z,3.60
2023-02-18T00:29:36.273Z,2.63
2023-02-18T00:32:11.967Z,2.30
2023-02-18T00:34:41.922Z,2.70
2023-02-18T00:37:11.925Z,2.20
2023-02-18T00:39:41.888Z,2.65
2023-02-18T00:42:11.897Z,2.53
2023-02-18T00:44:41.949Z,2.63
2023-02-18T00:47:14.628Z,2.25
2023-02-18T00:49:44.945Z,3.00
2023-02-18T00:52:14.945Z,2.95
2023-02-18T00:54:45.433Z,2.53
2023-02-18T00:57:15.698Z,3.35
2023-02-18T00:59:46.000Z,2.83
2023-02-18T01:02:18.895Z,2.88
2023-02-18T01:04:49.009Z,3.45
2023-02-18T01:07:19.001Z,2.75
2023-02-18T01:09:49.218Z,3.15
2023-02-18T01:12:19.684Z,3.38
2023-02-18T01:14:51.059Z,3.20
2023-02-18T01:17:24.003Z,3.22
2023-02-18T01:19:54.292Z,4.05
2023-02-18T01:22:24.571Z,2.90
2023-02-18T01:24:54.592Z,3.63
2023-02-18T01:27:24.591Z,3.03
2023-02-18T01:29:54.529Z,3.50
2023-02-18T01:32:29.453Z,3.00
2023-02-18T01:34:59.698Z,2.22
2023-02-18T01:37:31.835Z,2.67
2023-02-18T01:40:02.147Z,2.60
2023-02-18T01:42:33.009Z,2.22
2023-02-18T01:45:18.248Z,1.92
2023-02-18T01:47:50.810Z,2.67
2023-02-18T01:50:21.034Z,2.35
2023-02-18T01:52:52.365Z,2.78
2023-02-18T01:55:22.786Z,2.38
2023-02-18T01:57:52.896Z,2.70
2023-02-18T02:00:23.502Z,2.58
2023-02-18T02:02:56.752Z,2.70
2023-02-18T02:05:27.029Z,3.50
2023-02-18T02:07:58.371Z,3.42
2023-02-18T02:10:32.583Z,2.80
2023-02-18T02:13:06.770Z,3.38
2023-02-18T02:15:40.887Z,2.70
2023-02-18T02:18:28.037Z,3.10
2023-02-18T02:21:22.283Z,2.72
2023-02-18T02:24:27.028Z,2.95
2023-02-18T02:27:08.888Z,3.28
2023-02-18T02:29:54.249Z,2.97
2023-02-18T02:32:42.806Z,3.80
2023-02-18T02:35:18.155Z,3.63
2023-02-18T02:37:52.488Z,2.85
2023-02-18T02:42:58.375Z,3.25
2023-02-18T02:45:32.987Z,3.20
2023-02-18T02:48:04.399Z,3.65
2023-02-18T02:50:41.024Z,3.65
2023-02-18T02:53:17.158Z,3.65
2023-02-18T02:55:47.385Z,3.17
2023-02-18T02:58:21.291Z,3.72
2023-02-18T03:00:57.340Z,3.95
2023-02-18T03:03:38.819Z,3.78
2023-02-18T03:06:29.541Z,3.67
2023-02-18T03:09:07.106Z,3.65
2023-02-18T03:11:43.169Z,3.85
2023-02-18T03:14:15.483Z,3.72
2023-02-18T03:16:49.204Z,3.67
2023-02-18T03:19:25.793Z,3.40
2023-02-18T03:22:04.452Z,2.72
2023-02-18T03:24:36.453Z,2.90
2023-02-18T03:27:09.168Z,3.30
2023-02-18T03:29:40.892Z,3.10
2023-02-18T03:32:12.966Z,3.00
2023-02-18T03:34:45.017Z,3.13
2023-02-18T03:37:18.577Z,2.65
2023-02-18T03:39:53.160Z,2.72
2023-02-18T03:42:28.625Z,2.10
2023-02-18T03:44:59.337Z,2.25
2023-02-18T03:47:29.714Z,1.75
2023-02-18T03:49:59.685Z,2.38
2023-02-18T03:52:32.193Z,2.08
2023-02-18T03:55:02.509Z,1.75
2023-02-18T03:57:33.935Z,1.55
2023-02-18T04:00:05.709Z,1.55
2023-02-18T04:02:43.451Z,1.55
2023-02-18T04:05:14.117Z,2.00
2023-02-18T04:07:46.640Z,1.90
2023-02-18T04:10:16.978Z,1.27
2023-02-18T04:12:47.184Z,1.42
2023-02-18T04:15:17.643Z,1.38
2023-02-18T04:17:47.839Z,1.10
2023-02-18T04:20:18.098Z,1.83
2023-02-18T04:22:50.906Z,1.55
2023-02-18T04:25:21.166Z,1.92
2023-02-18T04:27:51.466Z,1.63
2023-02-18T04:30:22.394Z,1.45
2023-02-18T04:32:52.761Z,1.50
2023-02-18T04:35:22.954Z,1.80
2023-02-18T04:37:55.783Z,1.60
2023-02-18T04:40:29.815Z,1.83
2023-02-18T04:43:00.398Z,1.52
2023-02-18T04:45:31.098Z,1.90
2023-02-18T04:48:01.353Z,1.90
2023-02-18T04:50:31.620Z,1.95
2023-02-18T04:53:04.429Z,2.47
2023-02-18T04:55:34.764Z,2.25
2023-02-18T04:58:05.023Z,2.30
2023-02-18T05:00:35.234Z,2.53
2023-02-18T05:03:05.436Z,1.80
2023-02-18T05:05:36.006Z,2.22
2023-02-18T05:08:09.010Z,2.35
2023-02-18T05:10:40.709Z,2.45
2023-02-18T05:13:10.916Z,2.33
2023-02-18T05:15:41.222Z,2.55
2023-02-18T05:18:11.466Z,2.55
2023-02-18T05:20:41.686Z,3.33
2023-02-18T05:23:14.857Z,3.83
2023-02-18T05:25:45.062Z,3.45
2023-02-18T05:28:15.312Z,3.22
2023-02-18T05:30:45.599Z,3.25
2023-02-18T05:33:15.895Z,4.30
2023-02-18T05:35:46.109Z,3.70
2023-02-18T05:38:19.043Z,3.88
2023-02-18T05:40:49.536Z,3.72
2023-02-18T05:43:19.852Z,4.25
2023-02-18T05:45:52.809Z,4.05
2023-02-18T05:48:23.029Z,3.78
2023-02-18T05:50:53.997Z,4.45
2023-02-18T05:53:26.844Z,4.25
2023-02-18T05:55:57.141Z,3.78
2023-02-18T05:58:27.357Z,4.38
2023-02-18T06:00:57.595Z,4.18
2023-02-18T06:03:27.763Z,4.75
2023-02-18T06:05:58.013Z,4.53
2023-02-18T06:08:30.895Z,4.70
2023-02-18T06:11:01.092Z,5.00
2023-02-18T06:13:31.268Z,5.50
2023-02-18T06:16:01.504Z,4.93
2023-02-18T06:18:31.718Z,4.57
2023-02-18T06:21:01.942Z,4.80
2023-02-18T06:23:34.723Z,4.38
2023-02-18T06:26:04.986Z,4.80
2023-02-18T06:28:35.243Z,4.70
2023-02-18T06:31:05.733Z,5.78
2023-02-18T06:33:36.181Z,4.78
2023-02-18T06:36:08.538Z,4.93
2023-02-18T06:38:42.448Z,5.15
2023-02-18T06:41:12.706Z,5.78
2023-02-18T06:43:42.910Z,5.13
2023-02-18T06:46:13.209Z,5.07
2023-02-18T06:48:43.434Z,5.38
2023-02-18T06:51:14.447Z,5.45
2023-02-18T06:53:47.231Z,5.82
2023-02-18T06:56:17.523Z,5.30
2023-02-18T06:58:47.746Z,5.18
2023-02-18T07:01:18.009Z,5.50
2023-02-18T07:03:50.213Z,4.70
2023-02-18T07:06:20.703Z,5.20
2023-02-18T07:08:53.494Z,5.70
2023-02-18T07:11:23.681Z,5.00
2023-02-18T07:13:53.918Z,5.22
2023-02-18T07:16:24.145Z,5.15
2023-02-18T07:18:54.336Z,5.78
2023-02-18T07:21:24.564Z,6.18
2023-02-18T07:23:57.383Z,5.90
2023-02-18T07:26:27.661Z,6.38
2023-02-18T07:28:57.920Z,6.07
2023-02-18T07:31:28.179Z,5.63
2023-02-18T07:33:58.453Z,6.38
2023-02-18T07:36:28.720Z,6.60
2023-02-18T07:39:01.585Z,7.45
2023-02-18T07:41:31.846Z,6.43
2023-02-18T07:44:02.073Z,6.72
2023-02-18T07:46:32.312Z,7.82
2023-02-18T07:49:02.516Z,7.60
2023-02-18T07:51:32.748Z,7.13
2023-02-18T07:54:05.633Z,7.25
2023-02-18T07:56:35.992Z,6.88
2023-02-18T07:59:06.484Z,7.30
2023-02-18T08:01:36.722Z,7.43
2023-02-18T08:04:07.285Z,8.30
2023-02-18T08:06:38.319Z,6.47
2023-02-18T08:09:11.520Z,7.13
2023-02-18T08:11:41.729Z,7.22
2023-02-18T08:14:12.004Z,7.07
2023-02-18T08:16:42.335Z,6.85
2023-02-18T08:19:12.652Z,6.50
2023-02-18T08:21:42.834Z,7.10
2023-02-18T08:24:15.664Z,6.22
2023-02-18T08:26:59.488Z,5.82
2023-02-18T08:29:30.343Z,6.18
2023-02-18T08:32:00.585Z,6.22
2023-02-18T08:34:30.927Z,5.93
2023-02-18T08:37:01.104Z,5.90
2023-02-18T08:39:39.613Z,5.90
2023-02-18T08:42:10.099Z,5.05
2023-02-18T08:44:40.317Z,6.22
2023-02-18T08:48:18.755Z,4.47
2023-02-18T08:50:01.131Z,5.88
2023-02-18T08:52:31.644Z,4.60
2023-02-18T08:55:04.391Z,4.85
2023-02-18T08:57:34.751Z,4.78
2023-02-18T09:00:05.974Z,4.75
2023-02-18T09:02:36.219Z,4.32
2023-02-18T09:05:06.589Z,5.30
2023-02-18T09:07:36.771Z,4.63
2023-02-18T09:10:10.306Z,4.40
2023-02-18T09:12:40.550Z,4.55
2023-02-18T09:15:11.271Z,4.07
2023-02-18T09:17:41.706Z,4.20
2023-02-18T09:20:13.294Z,3.80
2023-02-18T09:22:43.671Z,3.90
2023-02-18T09:25:16.531Z,3.92
2023-02-18T09:27:46.767Z,3.45
2023-02-18T09:30:17.282Z,3.60
2023-02-18T09:32:47.529Z,3.22
2023-02-18T09:35:17.746Z,3.20
2023-02-18T09:37:48.032Z,2.80
2023-02-18T09:40:29.415Z,3.53
2023-02-18T09:43:00.688Z,3.85
2023-02-18T09:45:31.401Z,2.80
2023-02-18T09:48:02.157Z,3.05
2023-02-18T09:50:34.762Z,3.22
2023-02-18T09:53:05.918Z,2.97
2023-02-18T09:55:41.282Z,2.70
2023-02-18T09:58:15.788Z,3.15
2023-02-18T10:00:48.548Z,2.80
2023-02-18T10:03:20.965Z,2.63
2023-02-18T10:05:55.347Z,2.25
2023-02-18T10:11:00.126Z,2.72
2023-02-18T10:13:33.627Z,2.65
2023-02-18T10:16:04.315Z,2.63
2023-02-18T10:18:36.091Z,2.28
2023-02-18T10:21:12.678Z,2.55
2023-02-18T10:23:56.574Z,2.00
2023-02-18T10:26:29.651Z,2.22
2023-02-18T10:29:00.230Z,2.67
2023-02-18T10:31:36.854Z,2.47
2023-02-18T10:34:14.522Z,2.25
2023-02-18T10:36:48.961Z,2.22
2023-02-18T10:39:38.049Z,1.90
2023-02-18T10:42:23.549Z,2.00
2023-02-18T10:45:06.560Z,2.42
2023-02-18T10:47:43.069Z,2.35
2023-02-18T10:50:15.616Z,2.35
2023-02-18T10:52:48.529Z,2.53
2023-02-18T10:55:22.106Z,1.88
2023-02-18T10:57:57.829Z,2.42
2023-02-18T11:00:30.185Z,2.30
2023-02-18T11:03:19.915Z,2.47
2023-02-18T11:05:53.088Z,1.98
2023-02-18T11:08:25.699Z,2.58
2023-02-18T11:10:56.877Z,2.22
2023-02-18T11:13:32.884Z,1.75
2023-02-18T11:16:05.186Z,2.30
2023-02-18T11:18:40.688Z,2.40
2023-02-18T11:21:26.453Z,2.58
2023-02-18T11:23:58.185Z,2.00
2023-02-18T11:26:33.159Z,2.17
2023-02-18T11:29:12.055Z,1.90
2023-02-18T11:31:47.909Z,1.63
2023-02-18T11:34:21.644Z,2.22
2023-02-18T11:36:53.288Z,2.63
2023-02-18T11:39:26.675Z,2.58
2023-02-18T11:42:00.939Z,1.77
2023-02-18T11:44:37.143Z,2.17
2023-02-18T11:47:08.855Z,1.90
2023-02-18T11:49:39.283Z,2.50
2023-02-18T11:52:20.211Z,2.20
2023-02-18T11:55:04.846Z,2.10
2023-02-18T11:57:36.622Z,2.28
2023-02-18T12:00:23.107Z,2.13
2023-02-18T12:02:54.913Z,1.95
2023-02-18T12:05:28.739Z,1.95
2023-02-18T12:08:04.868Z,2.08
2023-02-18T12:10:37.953Z,2.20
2023-02-18T12:13:13.661Z,2.13
2023-02-18T12:15:56.416Z,2.35
2023-02-18T12:18:43.032Z,1.98
2023-02-18T12:21:30.016Z,1.60
2023-02-18T12:24:08.993Z,2.33
2023-02-18T12:26:48.763Z,1.83
2023-02-18T12:29:39.098Z,1.83
2023-02-18T12:32:24.582Z,2.05
2023-02-18T12:35:13.287Z,1.75
2023-02-18T12:38:05.704Z,1.50
2023-02-18T12:40:54.046Z,1.45
2023-02-18T12:43:34.964Z,2.13
2023-02-18T12:46:33.438Z,2.47
2023-02-18T12:49:35.493Z,2.20
2023-02-18T12:52:18.007Z,2.05
2023-02-18T12:55:02.728Z,2.03
2023-02-18T12:57:41.734Z,2.00
2023-02-18T13:00:41.937Z,1.65
2023-02-18T13:03:34.271Z,1.52
2023-02-18T13:06:20.919Z,1.80
2023-02-18T13:09:01.371Z,1.70
2023-02-18T13:11:40.073Z,1.75
2023-02-18T13:14:15.959Z,2.03
2023-02-18T13:16:49.871Z,1.75
2023-02-18T13:19:24.545Z,1.60
2023-02-18T13:22:01.472Z,2.03
2023-02-18T13:24:35.895Z,1.88
2023-02-18T13:27:22.115Z,1.58
2023-02-18T13:30:00.610Z,1.80
2023-02-18T13:32:38.717Z,1.73
2023-02-18T13:35:21.133Z,1.65
2023-02-18T13:38:06.050Z,1.60
2023-02-18T13:40:36.793Z,1.25
2023-02-18T13:43:23.388Z,1.40
2023-02-18T13:46:11.670Z,1.80
2023-02-18T13:48:47.691Z,1.40
2023-02-18T13:51:20.020Z,1.90
2023-02-18T13:53:59.948Z,1.60
2023-02-18T13:56:32.282Z,1.90
2023-02-18T13:59:10.346Z,1.23
2023-02-18T14:01:50.900Z,2.00
2023-02-18T14:04:53.603Z,1.55
2023-02-18T14:07:41.914Z,1.98
2023-02-18T14:10:29.854Z,1.70
2023-02-18T14:13:41.537Z,2.00
2023-02-18T14:16:12.275Z,2.10
2023-02-18T14:18:58.316Z,1.60
2023-02-18T14:21:44.998Z,2.08
2023-02-18T14:24:15.764Z,2.72
2023-02-18T14:26:52.534Z,2.35
2023-02-18T14:29:30.656Z,1.58
2023-02-18T14:32:05.208Z,1.65
2023-02-18T14:35:04.763Z,1.60
2023-02-18T14:38:07.306Z,2.40
2023-02-18T14:41:16.114Z,1.88
2023-02-18T14:44:13.142Z,2.28
2023-02-18T14:46:55.068Z,2.10
2023-02-18T14:49:39.030Z,2.50
2023-02-18T14:52:14.447Z,2.90
2023-02-18T14:54:44.872Z,3.22
2023-02-18T14:57:20.382Z,2.75
2023-02-18T15:00:01.667Z,3.38
2023-02-18T15:02:38.758Z,3.20
2023-02-18T15:05:16.757Z,2.85
2023-02-18T15:07:58.547Z,3.60
2023-02-18T15:10:42.479Z,3.10
2023-02-18T15:13:18.150Z,3.80
2023-02-18T15:15:54.183Z,3.25
2023-02-18T15:18:30.139Z,3.65
2023-02-18T15:21:00.398Z,3.60
2023-02-18T15:23:30.545Z,4.05
2023-02-18T15:26:00.963Z,3.38
2023-02-18T15:28:33.938Z,3.30
2023-02-18T15:31:07.413Z,2.90
2023-02-18T15:33:37.820Z,3.53
2023-02-18T15:36:09.642Z,3.35
2023-02-18T15:38:42.919Z,2.90
2023-02-18T15:41:16.368Z,3.38
2023-02-18T15:43:56.409Z,3.10
2023-02-18T15:46:29.881Z,3.13
2023-02-18T15:49:00.504Z,3.85
2023-02-18T15:51:33.336Z,3.45
2023-02-18T15:54:05.924Z,3.75
2023-02-18T15:56:38.653Z,3.33
2023-02-18T15:59:21.465Z,3.22
2023-02-18T16:01:56.520Z,3.08
2023-02-18T16:04:32.009Z,3.22
2023-02-18T16:07:07.422Z,3.67
2023-02-18T16:09:37.994Z,3.33
2023-02-18T16:12:15.860Z,3.30
2023-02-18T16:14:49.828Z,2.53
2023-02-18T16:17:26.389Z,3.35
2023-02-18T16:20:04.784Z,3.13
2023-02-18T16:22:39.015Z,3.97
2023-02-18T16:25:19.531Z,3.50
2023-02-18T16:27:53.474Z,3.42
2023-02-18T16:30:25.722Z,2.83
2023-02-18T16:32:59.046Z,3.22
2023-02-18T16:35:44.026Z,3.23
2023-02-18T16:38:19.970Z,2.92
2023-02-18T16:40:50.301Z,3.28
2023-02-18T16:43:22.146Z,2.75
2023-02-18T16:45:54.827Z,3.50
2023-02-18T16:48:31.905Z,3.28
2023-02-18T16:51:03.469Z,2.97
2023-02-18T16:53:33.581Z,3.45
2023-02-18T16:56:03.752Z,2.95
2023-02-18T16:58:33.736Z,4.22
2023-02-18T17:01:04.294Z,3.63
2023-02-18T17:03:36.895Z,3.78
2023-02-18T17:06:07.707Z,3.47
2023-02-18T17:08:37.948Z,3.85
2023-02-18T17:11:08.121Z,4.47
2023-02-18T17:13:38.077Z,4.18
2023-02-18T17:16:12.442Z,4.45
2023-02-18T17:18:45.507Z,4.28
2023-02-18T17:21:17.008Z,4.72
2023-02-18T17:23:47.380Z,4.85
2023-02-18T17:26:20.277Z,4.55
2023-02-18T17:28:52.457Z,4.05
2023-02-18T17:31:26.804Z,3.67
2023-02-18T17:34:02.646Z,4.10
2023-02-18T17:36:33.197Z,3.75
2023-02-18T17:39:04.535Z,4.30
2023-02-18T17:41:34.883Z,4.70
2023-02-18T17:44:05.398Z,3.95
2023-02-18T17:46:35.723Z,4.07
2023-02-18T17:49:08.304Z,4.15
2023-02-18T17:51:39.394Z,4.15
2023-02-18T17:54:15.301Z,4.10
2023-02-18T17:56:45.561Z,4.43
2023-02-18T17:59:15.763Z,4.50
2023-02-18T18:01:46.307Z,3.50
2023-02-18T18:04:20.381Z,3.65
2023-02-18T18:06:51.194Z,4.72
2023-02-18T18:09:21.455Z,3.47
2023-02-18T18:11:51.698Z,4.35
2023-02-18T18:14:21.670Z,4.07
2023-02-18T18:16:51.913Z,4.60
2023-02-18T18:19:24.478Z,5.13
2023-02-18T18:21:54.510Z,5.13
2023-02-18T18:24:24.836Z,5.57
2023-02-18T18:26:54.802Z,4.53
2023-02-18T18:29:24.771Z,6.10
2023-02-18T18:31:55.158Z,5.18
2023-02-18T18:34:27.959Z,5.00
2023-02-18T18:36:58.444Z,5.97
2023-02-18T18:39:28.493Z,4.22
2023-02-18T18:42:00.125Z,5.10
2023-02-18T18:44:30.093Z,4.50
2023-02-18T18:47:00.353Z,3.95
2023-02-18T18:49:33.214Z,3.80
2023-02-18T18:52:03.366Z,3.75
2023-02-18T18:54:33.871Z,3.97
2023-02-18T18:57:04.182Z,3.95
2023-02-18T18:59:34.539Z,3.45
2023-02-18T19:02:04.967Z,3.88
2023-02-18T19:04:37.631Z,4.13
2023-02-18T19:07:07.918Z,4.28
2023-02-18T19:09:38.193Z,4.40
2023-02-18T19:12:08.600Z,4.13
2023-02-18T19:14:38.933Z,4.15
2023-02-18T19:17:09.165Z,4.75
2023-02-18T19:19:42.018Z,3.58
2023-02-18T19:22:12.351Z,3.90
2023-02-18T19:24:42.962Z,4.22
2023-02-18T19:27:14.379Z,4.90
2023-02-18T19:29:44.754Z,4.70
2023-02-18T19:32:15.204Z,4.35
2023-02-18T19:34:47.753Z,3.30
2023-02-18T19:37:17.991Z,4.03
2023-02-18T19:39:48.300Z,4.68
2023-02-18T19:42:18.570Z,4.20
2023-02-18T19:44:48.834Z,4.40
2023-02-18T19:47:19.090Z,4.53
2023-02-18T19:49:51.749Z,3.97
2023-02-18T19:52:22.723Z,3.97
2023-02-18T19:54:53.039Z,5.93
2023-02-18T19:57:23.175Z,5.40
2023-02-18T19:59:53.874Z,4.63
2023-02-18T20:02:26.793Z,4.47
2023-02-18T20:05:01.631Z,3.97
2023-02-18T20:07:32.180Z,7.28
2023-02-18T20:10:02.190Z,5.20
2023-02-18T20:12:32.450Z,3.97
2023-02-18T20:15:02.790Z,4.90
2023-02-18T20:17:34.735Z,4.65
2023-02-18T20:20:07.886Z,3.80
2023-02-18T20:22:38.406Z,4.68
2023-02-18T20:25:08.922Z,5.10
2023-02-18T20:27:47.933Z,5.15
2023-02-18T20:30:25.225Z,4.47
2023-02-18T20:32:55.543Z,3.97
2023-02-18T20:35:28.634Z,4.40
2023-02-18T20:37:58.647Z,4.50
2023-02-18T20:40:28.683Z,4.85
2023-02-18T20:42:58.977Z,5.05
2023-02-18T20:45:30.130Z,5.38
2023-02-18T20:48:00.188Z,5.15
2023-02-18T20:50:32.837Z,5.60
2023-02-18T20:53:03.172Z,5.43
2023-02-18T20:55:33.432Z,5.00
2023-02-18T20:58:03.667Z,4.75
2023-02-18T21:00:33.926Z,5.13
2023-02-18T21:03:04.480Z,4.70
2023-02-18T21:05:37.454Z,5.38
2023-02-18T21:08:07.769Z,5.47
2023-02-18T21:10:38.140Z,4.60
2023-02-18T21:13:08.421Z,4.60
2023-02-18T21:15:39.805Z,4.43
2023-02-18T21:18:10.146Z,4.25
2023-02-18T21:20:42.808Z,4.43
2023-02-18T21:23:13.152Z,4.25
2023-02-18T21:25:43.559Z,4.47
2023-02-18T21:28:13.753Z,4.00
2023-02-18T21:30:46.120Z,4.57
2023-02-18T21:33:16.372Z,3.30
2023-02-18T21:35:49.117Z,5.20
2023-02-18T21:38:19.264Z,4.28
2023-02-18T21:40:49.841Z,4.78
2023-02-18T21:43:20.162Z,4.43
2023-02-18T21:45:50.418Z,4.10
2023-02-18T21:48:33.148Z,3.90
2023-02-18T21:51:06.082Z,4.32
2023-02-18T21:53:36.077Z,3.97
2023-02-18T21:56:13.093Z,4.22
2023-02-18T21:58:44.277Z,4.15
2023-02-18T22:01:14.534Z,4.22
2023-02-18T22:03:44.653Z,3.80
2023-02-18T22:06:17.206Z,4.28
2023-02-18T22:08:47.188Z,5.18
2023-02-18T22:11:17.511Z,4.28
2023-02-18T22:13:47.725Z,4.35
2023-02-18T22:16:17.754Z,4.18
2023-02-18T22:18:48.042Z,4.05
2023-02-18T22:21:21.200Z,4.07
2023-02-18T22:23:51.220Z,4.43
2023-02-18T22:26:21.627Z,4.80
2023-02-18T22:28:55.188Z,4.30
2023-02-18T22:31:26.009Z,4.50
2023-02-18T22:33:56.829Z,4.47
2023-02-18T22:36:30.160Z,4.80
2023-02-18T22:39:01.387Z,4.50
2023-02-18T22:41:32.359Z,4.40
2023-02-18T22:44:03.927Z,4.22
2023-02-18T22:46:34.873Z,3.83
2023-02-18T22:49:05.958Z,4.10
2023-02-18T22:51:40.830Z,4.70
2023-02-18T22:54:13.517Z,4.30
2023-02-18T22:56:43.626Z,4.10
2023-02-18T22:59:14.364Z,4.45
2023-02-18T23:01:48.951Z,4.20
2023-02-18T23:04:20.512Z,4.13
2023-02-18T23:06:54.080Z,4.20
2023-02-18T23:09:25.983Z,4.00
2023-02-18T23:11:57.570Z,4.13
2023-02-18T23:14:30.536Z,4.68
2023-02-18T23:17:17.911Z,4.43
2023-02-18T23:19:49.184Z,4.80
2023-02-18T23:22:22.805Z,5.00
2023-02-18T23:24:53.037Z,4.78
2023-02-18T23:27:24.367Z,4.80
2023-02-18T23:29:55.203Z,4.80
2023-02-18T23:32:25.995Z,4.30
2023-02-18T23:34:56.067Z,5.07
2023-02-18T23:37:43.591Z,5.00
2023-02-18T23:40:15.065Z,4.45
2023-02-18T23:42:45.373Z,4.93
2023-02-18T23:45:15.626Z,4.30
2023-02-18T23:47:46.015Z,5.10
2023-02-18T23:50:17.769Z,5.18
2023-02-18T23:52:51.693Z,5.35
2023-02-18T23:55:21.781Z,4.78
2023-02-18T23:57:51.897Z,4.57
